Shorkot Weather



Shorkot's Current Weather

Temprature 28.48o clear sky

clear sky

Rain: 0 %

Min Temprature28.48o
Max Temprature28.48o
Humidity35
Wind Speed5.81 m/h
Sun Rise05:14:39
Sun Set19:12:16
Current Time: 24-May-2022 07:59:29
Lat/Lon: 31.9099, 70.8774




Shorkot's Geo Location



Shorkot's Weather Forecast

Time Overall Temp Min Temp Max Temp Humidity Wind Speed Rain
24-May-2022 (Tue)
08:00:00 clear sky 28.480 28.480 28.480 35 5.81 m/h 0 %
11:00:00 clear sky 29.870 29.870 32.660 31 4.01 m/h 0 %
14:00:00 clear sky 33.480 33.480 35.980 23 3.64 m/h 0 %
17:00:00 clear sky 36.710 36.710 36.710 16 3.5 m/h 0 %
20:00:00 clear sky 33.470 33.470 33.470 19 3.66 m/h 0 %
23:00:00 clear sky 31.250 31.250 31.250 22 3.41 m/h 0 %
25-May-2022 (Wed)
02:00:00 clear sky 29.010 29.010 29.010 27 1.26 m/h 0 %
05:00:00 clear sky 27.580 27.580 27.580 29 1.69 m/h 0 %
08:00:00 clear sky 32.690 32.690 32.690 21 2.49 m/h 0 %
11:00:00 clear sky 37.620 37.620 37.620 15 3.66 m/h 0 %
14:00:00 clear sky 40.380 40.380 40.380 12 2.66 m/h 0 %
17:00:00 clear sky 41.380 41.380 41.380 10 2.98 m/h 0 %
20:00:00 clear sky 36.940 36.940 36.940 14 3.84 m/h 0 %
23:00:00 clear sky 34.620 34.620 34.620 16 3.52 m/h 0 %
26-May-2022 (Thu)
02:00:00 clear sky 31.450 31.450 31.450 21 1.9 m/h 0 %
05:00:00 clear sky 29.520 29.520 29.520 25 1.12 m/h 0 %
08:00:00 clear sky 35.050 35.050 35.050 18 2.71 m/h 0 %
11:00:00 clear sky 40.680 40.680 40.680 12 3.29 m/h 0 %
14:00:00 clear sky 44.150 44.150 44.150 9 2.8 m/h 0 %
17:00:00 clear sky 45.070 45.070 45.070 7 3.4 m/h 0 %
20:00:00 clear sky 40.160 40.160 40.160 10 3.34 m/h 0 %
23:00:00 clear sky 36.790 36.790 36.790 12 4.17 m/h 0 %
27-May-2022 (Fri)
02:00:00 clear sky 33.610 33.610 33.610 17 2.63 m/h 0 %
05:00:00 clear sky 32.270 32.270 32.270 19 2.71 m/h 0 %
08:00:00 clear sky 37.670 37.670 37.670 14 3.23 m/h 0 %
11:00:00 clear sky 43.350 43.350 43.350 10 2.5 m/h 0 %
14:00:00 clear sky 46.850 46.850 46.850 5 1.76 m/h 0 %
17:00:00 clear sky 47.420 47.420 47.420 4 4.34 m/h 0 %
20:00:00 clear sky 41.550 41.550 41.550 6 4.08 m/h 0 %
23:00:00 clear sky 38.500 38.500 38.500 7 3.59 m/h 0 %
28-May-2022 (Sat)
02:00:00 clear sky 35.470 35.470 35.470 10 3.78 m/h 0 %
05:00:00 clear sky 33.260 33.260 33.260 22 3.55 m/h 0 %
08:00:00 clear sky 39.570 39.570 39.570 12 8.45 m/h 0 %
11:00:00 clear sky 44.440 44.440 44.440 10 9.69 m/h 0 %
14:00:00 clear sky 46.760 46.760 46.760 9 9.08 m/h 0 %
17:00:00 clear sky 46.270 46.270 46.270 6 5.65 m/h 0 %
20:00:00 clear sky 39.660 39.660 39.660 13 10.79 m/h 0 %
23:00:00 few clouds 38.120 38.120 38.120 14 10.44 m/h 0 %
29-May-2022 (Sun)
02:00:00 scattered clouds 36.330 36.330 36.330 16 6.86 m/h 0 %
05:00:00 scattered clouds 34.350 34.350 34.350 20 3.85 m/h 0 %

Famous Cities (61)